Terminal Aerodrome Forecast
Issued by NWS Raleigh/Durham, NC

Home | Current Version | Previous Version | Text Only | Print | Product List | Glossary On
Versions: 1 2 3 4 5 6 7 8 9 10 11 12 13 14 15 16 17 18 19 20 21 22 23 24 25 26 27 28 29
000
FTUS42 KRAH 301455 AAA
TAFRDU
TAF AMD
KRDU 301455Z 3015/0112 10006KT P6SM OVC011
     FM302000 11005KT P6SM BKN020 OVC180
      TEMPO 3020/3024 SCT020 BKN045 BKN150
     FM010500 14008KT 5SM BR VCSH BKN009 OVC200=

USA.gov is the U.S. government's official web portal to all federal, state and local government web resources and services.